Time;durP1;ratioP1;P1;durP2;ratioP2;P2;SDS_P1;SDS_P2;PMS_P1;PMS_P2;Temp;Humidity;BMP_temperature;BMP_pressure;BME280_temperature;BME280_humidity;BME280_pressure;Samples;Min_cycle;Max_cycle;Signal;HPM_P1;HPM_P2
2022/11/16 00:01:07;;;;;;;55.93;18.10;;;;;;;3.87;100.00;99402.09;4155653;28;23784;-75
2022/11/16 00:03:34;;;;;;;52.43;17.63;;;;;;;3.84;100.00;99405.84;4161245;28;20239;-74
2022/11/16 00:06:03;;;;;;;48.77;16.77;;;;;;;3.92;100.00;99407.81;4161921;28;20257;-72
2022/11/16 00:08:32;;;;;;;50.60;17.83;;;;;;;3.86;100.00;99397.78;4158091;28;22203;-75
2022/11/16 00:11:07;;;;;;;48.90;17.07;;;;;;;3.87;100.00;99400.31;4178972;28;20235;-71
2022/11/16 00:13:34;;;;;;;45.37;17.33;;;;;;;3.86;100.00;99397.78;4156618;28;20238;-75
2022/11/16 00:16:01;;;;;;;53.20;18.00;;;;;;;3.96;100.00;99399.53;4173346;28;20250;-75
2022/11/16 00:18:28;;;;;;;42.97;17.17;;;;;;;3.96;100.00;99401.34;4146412;28;22939;-71
2022/11/16 00:20:55;;;;;;;49.23;18.67;;;;;;;3.91;100.00;99390.34;4169500;28;20242;-71
2022/11/16 00:23:22;;;;;;;45.07;16.73;;;;;;;3.91;100.00;99399.09;4163479;28;20269;-74
2022/11/16 00:25:49;;;;;;;43.43;16.27;;;;;;;3.94;100.00;99393.56;4158750;28;23543;-75
2022/11/16 00:28:16;;;;;;;42.70;15.87;;;;;;;3.90;100.00;99392.16;4156237;28;20238;-70
2022/11/16 00:30:42;;;;;;;46.93;16.00;;;;;;;3.93;100.00;99396.31;4159776;28;20322;-73
2022/11/16 00:33:13;;;;;;;41.70;15.83;;;;;;;3.97;100.00;99397.75;4156672;28;20239;-75
2022/11/16 00:35:40;;;;;;;37.67;15.57;;;;;;;4.00;100.00;99387.81;4172350;28;26531;-73
2022/11/16 00:38:06;;;;;;;43.80;16.23;;;;;;;3.94;100.00;99385.66;4146662;28;21192;-71
2022/11/16 00:40:33;;;;;;;41.70;15.77;;;;;;;3.97;100.00;99388.03;4156848;28;20239;-72
2022/11/16 00:43:00;;;;;;;40.47;16.17;;;;;;;4.05;100.00;99391.81;4153976;28;21171;-74
2022/11/16 00:45:26;;;;;;;41.20;15.27;;;;;;;4.09;100.00;99390.59;4158619;28;20741;-74
2022/11/16 00:47:53;;;;;;;37.00;14.77;;;;;;;4.15;100.00;99398.00;4157605;28;20334;-69
2022/11/16 00:50:25;;;;;;;37.17;14.77;;;;;;;4.13;100.00;99395.50;4156592;28;23565;-71
2022/11/16 00:52:52;;;;;;;38.10;14.90;;;;;;;4.12;100.00;99396.47;4156332;28;20243;-72
2022/11/16 00:55:19;;;;;;;44.07;14.77;;;;;;;4.09;100.00;99396.69;4159644;28;21277;-74
2022/11/16 00:57:46;;;;;;;37.27;13.57;;;;;;;4.09;100.00;99391.44;4153425;28;20645;-71
2022/11/16 01:00:13;;;;;;;35.03;13.17;;;;;;;4.07;100.00;99390.72;4161535;28;20367;-73
2022/11/16 01:02:40;;;;;;;35.07;13.37;;;;;;;3.97;100.00;99385.41;4156701;28;20299;-71
2022/11/16 01:05:08;;;;;;;36.03;13.97;;;;;;;4.07;100.00;99377.56;4157216;28;22866;-72
2022/11/16 01:07:36;;;;;;;35.87;13.03;;;;;;;4.19;100.00;99371.28;4151887;28;20417;-70
2022/11/16 01:10:06;;;;;;;34.60;13.53;;;;;;;4.15;100.00;99367.22;4155643;28;20239;-73
2022/11/16 01:12:32;;;;;;;35.80;14.83;;;;;;;4.05;100.00;99371.63;4152570;28;20235;-72
2022/11/16 01:14:59;;;;;;;35.03;13.17;;;;;;;4.04;100.00;99372.56;4145662;28;20398;-70
2022/11/16 01:17:25;;;;;;;35.00;13.83;;;;;;;4.13;100.00;99368.34;4156435;28;20234;-74
2022/11/16 01:19:52;;;;;;;39.03;14.80;;;;;;;4.10;100.00;99355.44;4161144;28;20360;-71
2022/11/16 01:22:19;;;;;;;36.27;14.20;;;;;;;4.12;100.00;99348.22;4160654;28;21389;-71
2022/11/16 01:24:46;;;;;;;36.53;14.30;;;;;;;4.17;100.00;99354.78;4147488;28;20699;-71
2022/11/16 01:27:13;;;;;;;34.97;14.27;;;;;;;4.21;100.00;99353.56;4156104;28;20226;-71
2022/11/16 01:29:39;;;;;;;35.90;14.60;;;;;;;4.17;100.00;99343.41;4157475;28;20307;-72
2022/11/16 01:32:06;;;;;;;37.60;14.10;;;;;;;4.12;100.00;99349.06;4152591;28;20311;-72
2022/11/16 01:34:33;;;;;;;37.90;13.63;;;;;;;4.14;100.00;99357.66;4156063;28;20399;-71
2022/11/16 01:36:59;;;;;;;35.67;14.80;;;;;;;4.10;100.00;99350.16;4150598;28;21186;-70
2022/11/16 01:39:26;;;;;;;35.63;14.67;;;;;;;4.06;100.00;99348.75;4148353;28;20306;-70
2022/11/16 01:41:52;;;;;;;33.53;13.93;;;;;;;3.99;100.00;99349.25;4149640;28;20239;-70
2022/11/16 01:44:31;;;;;;;32.73;14.07;;;;;;;4.12;100.00;99343.81;4154751;28;22247;-74
2022/11/16 01:46:59;;;;;;;33.57;13.00;;;;;;;4.08;100.00;99345.03;4157556;28;20687;-74
2022/11/16 01:49:27;;;;;;;31.80;13.83;;;;;;;4.16;100.00;99345.19;4150038;28;20300;-76
2022/11/16 01:51:57;;;;;;;34.30;13.70;;;;;;;4.06;100.00;99339.06;4155256;28;23034;-70
2022/11/16 01:54:23;;;;;;;33.27;13.33;;;;;;;4.08;100.00;99336.31;4144395;28;20285;-73
2022/11/16 01:56:51;;;;;;;36.70;14.47;;;;;;;4.04;100.00;99333.09;4148954;28;20480;-73
2022/11/16 01:59:18;;;;;;;40.73;14.07;;;;;;;4.10;100.00;99326.47;4167111;28;23214;-71
2022/11/16 02:01:44;;;;;;;36.17;14.57;;;;;;;4.10;100.00;99329.09;4161096;28;20239;-72
2022/11/16 02:04:12;;;;;;;28.20;13.13;;;;;;;4.19;100.00;99323.03;4152016;28;20242;-72
2022/11/16 02:07:03;;;;;;;38.97;14.10;;;;;;;4.26;100.00;99333.88;4156178;28;20241;-70
2022/11/16 02:09:54;;;;;;;34.87;12.63;;;;;;;4.34;100.00;99331.44;4165222;28;21062;-70
2022/11/16 02:12:34;;;;;;;30.97;12.37;;;;;;;4.18;100.00;99326.63;4166519;28;20415;-69
2022/11/16 02:15:14;;;;;;;30.90;12.20;;;;;;;4.16;100.00;99325.94;4161986;28;20627;-70
2022/11/16 02:18:02;;;;;;;27.43;11.70;;;;;;;4.20;100.00;99330.81;4140991;28;22222;-68
2022/11/16 02:20:58;;;;;;;29.10;12.17;;;;;;;4.13;100.00;99324.41;4155921;28;25066;-69
2022/11/16 02:23:43;;;;;;;33.57;11.87;;;;;;;4.16;100.00;99316.22;4168147;28;20300;-68
2022/11/16 02:26:33;;;;;;;27.93;12.07;;;;;;;4.21;100.00;99310.56;4155287;28;26587;-69
2022/11/16 02:29:19;;;;;;;28.33;11.80;;;;;;;4.17;100.00;99320.53;4162023;28;24029;-68
2022/11/16 02:31:59;;;;;;;33.93;12.87;;;;;;;4.15;100.00;99311.94;4163526;28;22073;-70
2022/11/16 02:34:29;;;;;;;32.57;12.53;;;;;;;4.19;100.00;99308.09;4154056;28;20425;-69
2022/11/16 02:36:57;;;;;;;33.13;12.83;;;;;;;4.20;100.00;99301.03;4147155;28;20389;-69
2022/11/16 02:39:26;;;;;;;30.37;11.30;;;;;;;4.22;100.00;99302.56;4152334;28;21400;-69
2022/11/16 02:41:54;;;;;;;30.43;12.10;;;;;;;4.16;100.00;99310.13;4160920;28;20227;-69
2022/11/16 02:44:25;;;;;;;29.30;12.23;;;;;;;4.06;100.00;99301.38;4153599;28;22536;-71
2022/11/16 02:46:56;;;;;;;30.80;12.17;;;;;;;4.19;100.00;99313.34;4156060;28;20319;-69
2022/11/16 02:49:24;;;;;;;34.10;13.77;;;;;;;4.28;100.00;99305.63;4166031;28;20392;-68
2022/11/16 02:51:52;;;;;;;30.67;12.67;;;;;;;4.12;100.00;99304.31;4147229;28;20241;-72
2022/11/16 02:54:20;;;;;;;31.03;13.37;;;;;;;4.16;100.00;99299.59;4160807;28;20235;-69
2022/11/16 02:57:03;;;;;;;29.17;12.70;;;;;;;4.24;100.00;99299.78;4159215;28;20243;-75
2022/11/16 02:59:38;;;;;;;32.53;14.00;;;;;;;4.18;100.00;99295.88;4154332;28;20721;-74
2022/11/16 03:02:18;;;;;;;30.90;12.50;;;;;;;4.23;100.00;99277.88;4147454;28;20458;-73
2022/11/16 03:04:47;;;;;;;29.90;12.70;;;;;;;4.13;100.00;99282.28;4170203;28;20241;-76
2022/11/16 03:07:17;;;;;;;30.30;13.27;;;;;;;4.21;100.00;99271.06;4157832;28;20259;-72
2022/11/16 03:09:44;;;;;;;30.13;13.33;;;;;;;4.06;100.00;99273.25;4167837;28;20424;-73
2022/11/16 03:12:15;;;;;;;28.77;12.67;;;;;;;4.11;100.00;99273.66;4162855;28;21360;-73
2022/11/16 03:14:59;;;;;;;30.47;12.93;;;;;;;4.14;100.00;99276.03;4174688;28;20317;-75
2022/11/16 03:17:28;;;;;;;33.80;14.33;;;;;;;4.10;100.00;99277.28;4153320;28;20304;-75
2022/11/16 03:20:17;;;;;;;32.53;13.37;;;;;;;4.12;100.00;99277.13;4172080;28;22446;-73
2022/11/16 03:22:45;;;;;;;35.57;15.07;;;;;;;4.08;100.00;99279.22;4166341;28;20662;-76
2022/11/16 03:25:15;;;;;;;35.00;13.73;;;;;;;4.08;100.00;99279.22;4166308;28;20230;-75
2022/11/16 03:27:50;;;;;;;37.73;15.60;;;;;;;4.12;100.00;99270.09;4166552;28;20245;-73
2022/11/16 03:30:21;;;;;;;36.50;14.23;;;;;;;4.15;100.00;99267.19;4149431;28;20252;-73
2022/11/16 03:33:02;;;;;;;36.13;14.40;;;;;;;4.19;100.00;99273.88;4160582;28;21705;-73
2022/11/16 03:35:33;;;;;;;37.57;15.50;;;;;;;4.27;100.00;99273.19;4178640;28;23094;-74
2022/11/16 03:38:02;;;;;;;34.13;14.43;;;;;;;4.25;100.00;99267.22;4165031;28;25577;-73
2022/11/16 03:40:31;;;;;;;31.50;14.17;;;;;;;4.23;100.00;99266.50;4170100;28;20750;-75
2022/11/16 03:42:58;;;;;;;35.77;14.37;;;;;;;4.17;100.00;99265.25;4167159;28;22031;-72
2022/11/16 03:45:25;;;;;;;34.40;13.47;;;;;;;4.12;100.00;99264.81;4165159;28;20999;-75
2022/11/16 03:47:52;;;;;;;36.10;14.20;;;;;;;4.20;100.00;99264.97;4156484;28;20276;-73
2022/11/16 03:50:19;;;;;;;33.40;14.63;;;;;;;4.28;100.00;99258.22;4161464;28;22367;-75
2022/11/16 03:52:45;;;;;;;34.43;14.77;;;;;;;4.29;100.00;99263.34;4169650;28;20304;-73
2022/11/16 03:55:12;;;;;;;38.53;14.90;;;;;;;4.15;100.00;99259.28;4163770;28;20241;-72
2022/11/16 03:57:38;;;;;;;37.30;14.77;;;;;;;4.26;100.00;99258.38;4161441;28;20312;-73
2022/11/16 04:00:06;;;;;;;38.93;16.07;;;;;;;4.25;100.00;99259.31;4165998;28;20473;-74
2022/11/16 04:02:32;;;;;;;34.27;14.37;;;;;;;4.23;100.00;99251.53;4171619;28;21539;-73
2022/11/16 04:24:29;;;;;;;44.10;16.30;;;;;;;4.28;100.00;99245.88;4178471;28;20301;-73
2022/11/16 04:29:44;;;;;;;40.63;16.67;;;;;;;4.20;100.00;99243.91;4181284;28;20238;-74
2022/11/16 04:37:47;;;;;;;47.70;17.50;;;;;;;4.06;100.00;99236.38;4191376;28;20847;-73
2022/11/16 04:40:15;;;;;;;44.03;17.03;;;;;;;4.06;100.00;99238.19;4171883;28;20273;-71
2022/11/16 04:42:42;;;;;;;44.30;18.47;;;;;;;4.14;100.00;99243.63;4167853;28;22270;-71
2022/11/16 04:47:54;;;;;;;45.10;17.13;;;;;;;4.27;100.00;99240.75;4178846;28;20237;-74
2022/11/16 04:50:20;;;;;;;46.77;17.43;;;;;;;4.31;100.00;99236.88;4170755;28;20238;-73
2022/11/16 04:52:47;;;;;;;41.63;17.27;;;;;;;4.31;100.00;99239.50;4154650;28;20254;-74
2022/11/16 04:55:14;;;;;;;45.33;18.17;;;;;;;4.26;100.00;99241.72;4182341;28;20246;-73
2022/11/16 04:57:40;;;;;;;43.97;17.37;;;;;;;4.17;100.00;99241.56;4175094;28;23246;-74
2022/11/16 05:00:08;;;;;;;44.20;17.60;;;;;;;4.18;100.00;99248.47;4168047;28;22871;-72
2022/11/16 05:02:34;;;;;;;48.53;18.27;;;;;;;4.23;100.00;99245.44;4170468;28;20310;-72
2022/11/16 05:05:01;;;;;;;52.93;19.37;;;;;;;4.20;100.00;99241.28;4163189;28;20235;-72
2022/11/16 05:07:27;;;;;;;51.63;18.43;;;;;;;4.26;100.00;99241.72;4173425;28;21396;-73
2022/11/16 05:09:54;;;;;;;49.17;17.40;;;;;;;4.11;100.00;99239.44;4161677;28;21952;-72
2022/11/16 05:12:22;;;;;;;47.20;18.93;;;;;;;4.13;100.00;99234.88;4163238;28;20293;-72
2022/11/16 05:14:49;;;;;;;49.83;19.37;;;;;;;4.16;100.00;99236.41;4169479;28;20239;-75
2022/11/16 05:17:17;;;;;;;51.80;18.77;;;;;;;4.19;100.00;99236.16;4160677;28;20458;-74
2022/11/16 05:22:28;;;;;;;51.37;19.60;;;;;;;4.25;100.00;99240.06;4163362;28;21688;-76
2022/11/16 05:24:55;;;;;;;55.13;20.27;;;;;;;4.26;100.00;99239.94;4157852;28;21256;-73
2022/11/16 05:27:23;;;;;;;45.30;18.87;;;;;;;4.25;100.00;99232.97;4164807;28;20249;-73
2022/11/16 05:29:50;;;;;;;50.83;18.10;;;;;;;4.19;100.00;99229.09;4159705;28;20236;-71
2022/11/16 05:32:18;;;;;;;46.73;18.57;;;;;;;4.20;100.00;99229.94;4172990;28;20406;-72
2022/11/16 05:34:45;;;;;;;53.00;18.67;;;;;;;4.21;100.00;99237.69;4166690;28;22413;-75
2022/11/16 05:37:12;;;;;;;43.83;17.03;;;;;;;4.18;100.00;99230.06;4171470;28;20234;-72
2022/11/16 05:39:39;;;;;;;54.57;19.10;;;;;;;4.16;100.00;99224.09;4169881;28;20304;-72
2022/11/16 05:42:06;;;;;;;49.93;18.83;;;;;;;4.13;100.00;99231.44;4161467;28;20239;-73
2022/11/16 05:44:33;;;;;;;47.93;18.27;;;;;;;4.10;100.00;99227.28;4170176;28;20351;-76
2022/11/16 05:46:59;;;;;;;49.80;17.90;;;;;;;4.15;100.00;99229.50;4165775;28;23682;-71
2022/11/16 05:49:26;;;;;;;52.03;19.03;;;;;;;4.06;100.00;99231.13;4150793;28;23388;-73
2022/11/16 05:51:54;;;;;;;52.57;18.47;;;;;;;4.09;100.00;99220.31;4174322;28;20758;-71
2022/11/16 05:54:23;;;;;;;51.93;19.03;;;;;;;4.06;100.00;99225.84;4150005;28;20335;-71
2022/11/16 05:56:50;;;;;;;55.60;19.33;;;;;;;4.03;100.00;99234.03;4163426;28;21354;-74
2022/11/16 05:59:18;;;;;;;56.87;19.80;;;;;;;4.01;100.00;99231.53;4159008;28;20238;-71
2022/11/16 06:01:45;;;;;;;53.90;18.80;;;;;;;4.00;100.00;99231.66;4160859;28;20310;-76
2022/11/16 06:04:12;;;;;;;47.27;18.23;;;;;;;4.07;100.00;99239.84;4158725;28;21669;-73
2022/11/16 06:06:39;;;;;;;51.63;19.50;;;;;;;4.08;100.00;99237.09;4159410;28;20859;-77
2022/11/16 06:09:06;;;;;;;52.67;19.03;;;;;;;4.10;100.00;99237.81;4161757;28;20233;-71
2022/11/16 06:11:33;;;;;;;56.27;20.20;;;;;;;4.07;100.00;99240.69;4158431;28;21617;-73
2022/11/16 06:14:01;;;;;;;54.33;20.40;;;;;;;4.06;100.00;99246.91;4159948;28;20237;-72
2022/11/16 06:16:28;;;;;;;50.60;18.80;;;;;;;4.04;100.00;99235.69;4187161;28;22762;-71
2022/11/16 06:18:55;;;;;;;50.90;20.47;;;;;;;4.03;100.00;99241.94;4169141;28;20277;-74
2022/11/16 06:21:21;;;;;;;50.40;20.13;;;;;;;4.00;100.00;99234.28;4169233;28;20239;-73
2022/11/16 06:23:48;;;;;;;52.77;19.63;;;;;;;4.02;100.00;99240.25;4168590;28;20304;-73
2022/11/16 06:26:14;;;;;;;47.37;18.60;;;;;;;4.02;100.00;99251.59;4173218;28;20919;-76
2022/11/16 06:28:41;;;;;;;46.63;18.57;;;;;;;4.09;100.00;99246.66;4173371;28;25930;-75
2022/11/16 06:31:08;;;;;;;47.83;18.47;;;;;;;4.02;100.00;99242.88;4185042;28;20392;-72
2022/11/16 06:33:34;;;;;;;50.73;19.63;;;;;;;4.06;100.00;99244.28;4174085;28;20772;-73
2022/11/16 06:36:01;;;;;;;54.00;19.67;;;;;;;4.00;100.00;99237.75;4171136;28;21716;-73
2022/11/16 06:38:27;;;;;;;46.07;17.47;;;;;;;4.04;100.00;99238.31;4151633;28;20250;-74
2022/11/16 06:40:56;;;;;;;53.80;19.63;;;;;;;4.09;100.00;99228.22;4167187;28;20280;-72
2022/11/16 06:43:23;;;;;;;49.97;19.03;;;;;;;4.16;100.00;99231.97;4166959;28;20241;-72
2022/11/16 06:45:53;;;;;;;44.83;17.63;;;;;;;4.14;100.00;99228.66;4159682;28;20241;-75
2022/11/16 06:48:21;;;;;;;47.63;17.90;;;;;;;4.09;100.00;99232.66;4167254;28;21211;-74
2022/11/16 06:50:51;;;;;;;45.07;18.33;;;;;;;4.12;100.00;99235.00;4179679;28;21379;-73
2022/11/16 06:53:18;;;;;;;44.47;18.73;;;;;;;4.20;100.00;99241.28;4185698;28;20412;-72
2022/11/16 06:55:44;;;;;;;43.83;17.60;;;;;;;4.17;100.00;99241.56;4162536;28;20319;-72
2022/11/16 06:58:11;;;;;;;43.73;17.43;;;;;;;4.18;100.00;99235.31;4192315;28;20234;-67
2022/11/16 07:00:37;;;;;;;45.90;17.00;;;;;;;4.08;100.00;99234.47;4180955;28;20249;-70
2022/11/16 07:03:04;;;;;;;42.63;17.10;;;;;;;4.20;100.00;99243.91;4195954;28;20785;-68
2022/11/16 07:05:31;;;;;;;41.63;16.47;;;;;;;4.13;100.00;99245.41;4193100;28;20236;-70
2022/11/16 07:07:57;;;;;;;37.43;16.13;;;;;;;4.20;100.00;99235.19;4211047;28;22661;-71
2022/11/16 07:10:24;;;;;;;39.27;16.23;;;;;;;4.29;100.00;99233.56;4173666;28;20619;-69
2022/11/16 07:12:51;;;;;;;43.40;15.87;;;;;;;4.24;100.00;99236.59;4209136;28;20238;-66
2022/11/16 07:15:18;;;;;;;42.90;17.67;;;;;;;4.27;100.00;99228.41;4181562;28;20334;-71
2022/11/16 07:17:45;;;;;;;48.87;17.57;;;;;;;4.30;100.00;99224.69;4167131;28;20250;-70
2022/11/16 07:20:11;;;;;;;52.00;18.47;;;;;;;4.33;100.00;99224.41;4177078;28;20229;-74
2022/11/16 07:22:38;;;;;;;46.83;17.87;;;;;;;4.23;100.00;99219.13;4177110;28;26198;-77
2022/11/16 07:25:05;;;;;;;44.23;17.27;;;;;;;4.23;100.00;99217.31;4169548;28;20435;-74
2022/11/16 07:27:32;;;;;;;42.53;16.63;;;;;;;4.27;100.00;99224.97;4174749;28;20420;-64
2022/11/16 07:30:00;;;;;;;47.07;18.60;;;;;;;4.17;100.00;99219.69;4191133;28;20314;-74
2022/11/16 07:32:29;;;;;;;47.03;18.77;;;;;;;4.18;100.00;99218.69;4198398;28;20235;-75
2022/11/16 07:34:56;;;;;;;45.07;17.23;;;;;;;4.19;100.00;99217.72;4179402;28;21434;-73
2022/11/16 07:37:30;;;;;;;45.10;17.10;;;;;;;4.10;100.00;99214.09;4219749;28;25390;-74
2022/11/16 07:39:57;;;;;;;45.80;18.17;;;;;;;4.10;100.00;99216.75;4216898;28;21574;-76
2022/11/16 07:42:23;;;;;;;48.10;18.27;;;;;;;4.07;100.00;99208.25;4198564;28;21412;-69
2022/11/16 07:44:50;;;;;;;52.13;18.70;;;;;;;4.07;100.00;99213.53;4158356;28;20291;-73
2022/11/16 07:47:16;;;;;;;54.73;19.90;;;;;;;4.03;100.00;99215.59;4222190;28;20377;-74
2022/11/16 07:49:43;;;;;;;48.47;18.87;;;;;;;4.16;100.00;99223.25;4185643;28;21379;-70
2022/11/16 07:52:09;;;;;;;51.30;19.47;;;;;;;4.14;100.00;99217.28;4179343;28;20234;-71
2022/11/16 07:54:36;;;;;;;65.20;22.10;;;;;;;4.12;100.00;99212.19;4164234;28;22943;-70
2022/11/16 07:57:03;;;;;;;55.60;21.63;;;;;;;4.18;100.00;99210.78;4168141;28;20226;-73
2022/11/16 07:59:29;;;;;;;51.47;20.97;;;;;;;4.19;100.00;99208.03;4236806;28;20316;-73
2022/11/16 08:01:57;;;;;;;55.67;21.10;;;;;;;4.16;100.00;99202.19;4169719;28;20323;-70
2022/11/16 08:04:24;;;;;;;57.20;22.03;;;;;;;4.11;100.00;99205.22;4177150;28;21436;-69
2022/11/16 08:06:51;;;;;;;53.77;21.03;;;;;;;4.13;100.00;99202.47;4194762;28;20299;-71
2022/11/16 08:09:18;;;;;;;57.00;21.50;;;;;;;4.14;100.00;99199.69;4214054;28;20328;-71
2022/11/16 08:11:46;;;;;;;55.97;21.10;;;;;;;4.12;100.00;99208.69;4183216;28;21547;-72
2022/11/16 08:14:12;;;;;;;57.13;21.10;;;;;;;4.16;100.00;99199.56;4191500;28;21743;-71
2022/11/16 08:16:39;;;;;;;54.67;21.50;;;;;;;4.12;100.00;99201.66;4184359;28;22769;-72
2022/11/16 08:19:06;;;;;;;52.90;21.47;;;;;;;4.14;100.00;99207.59;4185031;28;20234;-74
2022/11/16 08:21:32;;;;;;;58.30;20.50;;;;;;;4.22;100.00;99201.66;4212733;28;22410;-72
2022/11/16 08:23:59;;;;;;;54.50;21.80;;;;;;;4.31;100.00;99205.28;4199137;28;20598;-73
2022/11/16 08:26:26;;;;;;;56.57;21.70;;;;;;;4.25;100.00;99200.56;4228313;28;20236;-70
2022/11/16 08:28:55;;;;;;;52.03;20.07;;;;;;;4.25;100.00;99197.94;4188307;28;20238;-72
2022/11/16 08:31:25;;;;;;;47.03;20.50;;;;;;;4.26;100.00;99202.22;4192279;28;21650;-71
2022/11/16 08:33:52;;;;;;;45.97;18.30;;;;;;;4.21;100.00;99192.94;4196383;28;21203;-71
2022/11/16 08:36:21;;;;;;;45.60;18.37;;;;;;;4.25;100.00;99200.56;4203927;28;21812;-72
2022/11/16 08:38:49;;;;;;;47.27;18.07;;;;;;;4.13;100.00;99203.28;4200036;28;25618;-73
2022/11/16 08:41:16;;;;;;;43.53;18.10;;;;;;;4.13;100.00;99198.03;4186346;28;20294;-73
2022/11/16 08:43:45;;;;;;;44.40;17.03;;;;;;;4.11;100.00;99202.59;4190591;28;20230;-74
2022/11/16 08:46:12;;;;;;;37.17;15.80;;;;;;;4.10;100.00;99198.31;4193233;28;22572;-71
2022/11/16 08:48:39;;;;;;;33.83;14.83;;;;;;;4.09;100.00;99207.16;4167540;28;20228;-74
2022/11/16 08:51:08;;;;;;;42.13;15.90;;;;;;;4.14;100.00;99210.22;4169424;28;21886;-72
2022/11/16 08:53:44;;;;;;;33.27;15.33;;;;;;;4.24;100.00;99212.91;4210958;28;20862;-74
2022/11/16 08:56:12;;;;;;;35.30;15.67;;;;;;;4.19;100.00;99215.94;4194798;28;26587;-76
2022/11/16 08:58:45;;;;;;;34.03;14.37;;;;;;;4.22;100.00;99204.31;4190109;28;20241;-73
2022/11/16 09:01:15;;;;;;;29.90;13.50;;;;;;;4.19;100.00;99215.94;4201894;28;22460;-75
2022/11/16 09:03:42;;;;;;;31.57;12.73;;;;;;;4.23;100.00;99212.03;4192366;28;20231;-72
2022/11/16 09:06:09;;;;;;;29.23;12.20;;;;;;;4.21;100.00;99211.38;4189125;28;20678;-71
2022/11/16 09:08:37;;;;;;;27.53;12.63;;;;;;;4.10;100.00;99211.47;4181538;28;20497;-73
2022/11/16 09:11:09;;;;;;;27.77;12.57;;;;;;;4.05;100.00;99213.69;4203084;28;22070;-75
2022/11/16 09:13:36;;;;;;;24.00;11.80;;;;;;;4.05;100.00;99211.03;4193569;28;20681;-70
2022/11/16 09:16:03;;;;;;;26.97;11.53;;;;;;;4.16;100.00;99213.56;4174407;28;21168;-74
2022/11/16 09:18:30;;;;;;;24.30;11.93;;;;;;;4.16;100.00;99208.28;4229263;28;20359;-74
2022/11/16 09:20:57;;;;;;;28.23;10.80;;;;;;;4.05;100.00;99195.25;4191127;28;20737;-70
2022/11/16 09:23:24;;;;;;;22.27;10.57;;;;;;;3.98;100.00;99194.09;4211395;28;20332;-74
2022/11/16 09:25:51;;;;;;;22.37;10.47;;;;;;;4.02;100.00;99187.59;4201206;28;20340;-71
2022/11/16 09:28:20;;;;;;;22.77;10.23;;;;;;;4.06;100.00;99190.81;4177201;28;20524;-73
2022/11/16 09:30:49;;;;;;;26.13;10.50;;;;;;;4.07;100.00;99198.56;4177407;28;20305;-73
2022/11/16 09:33:16;;;;;;;23.87;10.23;;;;;;;4.05;100.00;99189.13;4179737;28;22501;-71
2022/11/16 09:35:43;;;;;;;19.90;9.73;;;;;;;4.03;100.00;99194.56;4192810;28;20269;-74
2022/11/16 09:38:10;;;;;;;23.13;10.40;;;;;;;3.98;100.00;99192.31;4181654;28;22274;-72
2022/11/16 09:40:46;;;;;;;19.90;9.80;;;;;;;4.00;100.00;99186.91;4167598;28;21490;-71
2022/11/16 09:43:28;;;;;;;20.33;9.70;;;;;;;4.02;100.00;99187.59;4176964;28;20235;-73
2022/11/16 09:46:10;;;;;;;24.93;11.27;;;;;;;4.13;100.00;99182.25;4186552;28;20643;-77
2022/11/16 09:48:37;;;;;;;21.00;9.80;;;;;;;4.07;100.00;99188.03;4144484;28;21878;-71
2022/11/16 09:51:07;;;;;;;21.27;10.20;;;;;;;4.18;100.00;99190.56;4150987;28;26253;-70
2022/11/16 09:53:41;;;;;;;19.20;9.13;;;;;;;4.17;100.00;99188.91;4174289;28;20707;-68
2022/11/16 09:56:11;;;;;;;17.20;9.43;;;;;;;4.17;100.00;99188.06;4176649;28;21226;-69
2022/11/16 09:59:11;;;;;;;18.73;9.80;;;;;;;4.17;100.00;99183.63;4175851;28;20240;-68
2022/11/16 10:01:57;;;;;;;18.77;10.00;;;;;;;4.30;100.00;99190.44;4183078;28;20244;-71
2022/11/16 10:04:37;;;;;;;17.50;9.17;;;;;;;4.19;100.00;99186.13;4202735;28;20242;-70
2022/11/16 10:07:19;;;;;;;16.40;8.63;;;;;;;4.27;100.00;99178.38;4175289;28;21766;-77
2022/11/16 10:09:46;;;;;;;17.37;9.57;;;;;;;4.17;100.00;99181.00;4174615;28;21691;-66
2022/11/16 10:12:37;;;;;;;17.20;9.13;;;;;;;4.23;100.00;99177.00;4174938;28;20598;-70
2022/11/16 10:15:42;;;;;;;20.07;10.07;;;;;;;4.15;100.00;99169.78;4186894;28;20313;-67
2022/11/16 10:18:33;;;;;;;17.63;9.60;;;;;;;4.30;100.00;99172.00;4131855;29;20398;-65
2022/11/16 10:21:19;;;;;;;18.10;9.20;;;;;;;4.34;100.00;99168.16;4185052;28;26028;-73
2022/11/16 10:24:07;;;;;;;18.13;9.07;;;;;;;4.32;100.00;99160.38;4169717;28;23047;-67
2022/11/16 10:26:40;;;;;;;18.00;9.13;;;;;;;4.25;100.00;99156.63;4154983;28;21675;-66
2022/11/16 10:29:38;;;;;;;17.47;9.13;;;;;;;4.26;100.00;99145.13;4188844;28;20305;-67
2022/11/16 10:32:20;;;;;;;16.60;8.03;;;;;;;4.36;100.00;99151.25;4182095;28;21918;-65
2022/11/16 10:35:02;;;;;;;16.00;8.57;;;;;;;4.40;100.00;99151.78;4189627;28;20243;-69
2022/11/16 10:37:30;;;;;;;15.47;8.60;;;;;;;4.38;100.00;99149.31;4155900;28;20307;-69
2022/11/16 10:39:57;;;;;;;18.53;8.60;;;;;;;4.37;100.00;99147.63;4174977;28;21928;-69
2022/11/16 10:42:32;;;;;;;16.43;8.43;;;;;;;4.36;100.00;99147.78;4156899;28;22430;-68
2022/11/16 10:45:14;;;;;;;16.27;8.43;;;;;;;4.46;100.00;99156.50;4191288;28;20870;-68
2022/11/16 10:47:45;;;;;;;12.83;7.60;;;;;;;4.44;100.00;99153.19;4163972;28;20611;-66
2022/11/16 10:50:33;;;;;;;15.67;7.70;;;;;;;4.50;100.00;99155.28;4203792;28;21453;-65
2022/11/16 10:53:00;;;;;;;15.17;7.60;;;;;;;4.60;100.00;99148.19;4236871;28;21393;-67
2022/11/16 10:55:27;;;;;;;13.77;7.17;;;;;;;4.53;100.00;99152.34;4195904;28;20264;-63
2022/11/16 10:58:04;;;;;;;12.33;7.80;;;;;;;4.43;100.00;99151.53;4186870;28;20237;-68
2022/11/16 11:01:00;;;;;;;16.07;6.70;;;;;;;4.46;100.00;99153.88;4148768;28;20240;-66
2022/11/16 11:03:30;;;;;;;11.93;6.53;;;;;;;4.54;100.00;99147.91;4162433;28;20621;-68
2022/11/16 11:05:58;;;;;;;12.00;6.70;;;;;;;4.47;100.00;99145.00;4164595;28;20237;-67
2022/11/16 11:08:29;;;;;;;11.13;6.10;;;;;;;4.58;100.00;99144.88;4179178;28;21629;-69
2022/11/16 11:14:22;;;;;;;11.63;6.43;;;;;;;4.55;100.00;99145.16;4203708;28;20417;-70
2022/11/16 11:16:52;;;;;;;11.40;7.10;;;;;;;4.46;100.00;99140.72;4149070;28;22818;-71
2022/11/16 11:19:23;;;;;;;11.90;6.57;;;;;;;4.51;100.00;99142.94;4178631;28;20946;-68
2022/11/16 11:21:57;;;;;;;10.43;5.57;;;;;;;4.48;100.00;99148.47;4190725;28;20231;-68
2022/11/16 11:24:25;;;;;;;10.63;5.90;;;;;;;4.48;100.00;99144.03;4187876;28;20238;-67
2022/11/16 11:27:11;;;;;;;10.70;5.77;;;;;;;4.31;100.00;99152.59;4187593;28;22149;-72
2022/11/16 11:29:40;;;;;;;11.70;6.07;;;;;;;4.28;100.00;99152.88;4173028;28;21814;-67
2022/11/16 11:32:12;;;;;;;10.87;5.50;;;;;;;4.41;100.00;99158.72;4163768;28;20333;-70
2022/11/16 11:34:47;;;;;;;10.43;5.70;;;;;;;4.39;100.00;99152.75;4192288;28;20232;-68
2022/11/16 11:37:21;;;;;;;8.67;4.77;;;;;;;4.49;100.00;99152.75;4212819;28;20231;-71
2022/11/16 11:39:47;;;;;;;8.77;4.70;;;;;;;4.43;100.00;99149.72;4178975;28;22245;-69
2022/11/16 11:42:14;;;;;;;8.97;5.03;;;;;;;4.45;100.00;99144.31;4187467;28;26918;-68
2022/11/16 11:44:50;;;;;;;7.83;4.17;;;;;;;4.50;100.00;99146.53;4187335;28;20240;-66
2022/11/16 11:47:27;;;;;;;8.27;4.30;;;;;;;4.64;100.00;99144.31;4188999;28;23480;-67
2022/11/16 11:50:18;;;;;;;6.37;4.20;;;;;;;4.62;100.00;99143.63;4175817;28;20233;-67
2022/11/16 11:52:56;;;;;;;6.23;4.00;;;;;;;4.60;100.00;99137.66;4162582;28;20327;-69
2022/11/16 11:55:22;;;;;;;7.80;4.43;;;;;;;4.73;100.00;99136.53;4145353;28;20242;-64
2022/11/16 11:57:52;;;;;;;7.60;3.80;;;;;;;4.77;100.00;99143.19;4161265;28;20236;-65
2022/11/16 12:00:22;;;;;;;9.53;4.30;;;;;;;4.75;100.00;99145.13;4166854;28;22670;-65
2022/11/16 12:03:15;;;;;;;7.70;4.30;;;;;;;4.81;100.00;99134.03;4174207;28;20720;-65
2022/11/16 12:05:50;;;;;;;6.70;3.83;;;;;;;4.72;100.00;99126.97;4200490;28;20241;-66
2022/11/16 12:08:33;;;;;;;6.00;3.50;;;;;;;4.69;100.00;99132.53;4188559;28;20354;-66
2022/11/16 12:11:11;;;;;;;7.27;3.80;;;;;;;4.63;100.00;99139.19;4219417;28;20263;-66